createdAt,value
2023-03-31T00:01:28.805Z,10.39
2023-03-31T00:04:05.258Z,10.42
2023-03-31T00:06:38.371Z,10.42
2023-03-31T00:09:10.915Z,10.43
2023-03-31T00:11:40.981Z,10.47
2023-03-31T00:14:10.290Z,10.47
2023-03-31T00:16:40.768Z,10.48
2023-03-31T00:19:18.379Z,10.50
2023-03-31T00:21:48.060Z,10.48
2023-03-31T00:24:17.229Z,10.46
2023-03-31T00:26:46.312Z,10.47
2023-03-31T00:29:15.666Z,10.43
2023-03-31T00:31:44.514Z,10.43
2023-03-31T00:34:14.588Z,10.34
2023-03-31T00:36:47.717Z,10.38
2023-03-31T00:39:18.201Z,10.35
2023-03-31T00:41:47.054Z,10.30
2023-03-31T00:44:19.275Z,10.29
2023-03-31T00:47:00.467Z,10.25
2023-03-31T00:49:34.350Z,10.23
2023-03-31T00:52:07.759Z,10.17
2023-03-31T00:54:39.821Z,10.08
2023-03-31T00:57:10.331Z,10.16
2023-03-31T00:59:42.191Z,10.14
2023-03-31T01:02:14.284Z,10.13
2023-03-31T01:04:50.439Z,10.14
2023-03-31T01:07:26.125Z,10.13
2023-03-31T01:09:59.580Z,10.14
2023-03-31T01:12:29.041Z,10.11
2023-03-31T01:14:57.894Z,10.12
2023-03-31T01:17:30.111Z,10.11
2023-03-31T01:20:14.218Z,10.12
2023-03-31T01:23:19.543Z,10.11
2023-03-31T01:26:15.043Z,10.09
2023-03-31T01:28:48.887Z,10.08
2023-03-31T01:31:33.724Z,10.08
2023-03-31T01:34:30.647Z,10.08
2023-03-31T01:37:41.650Z,10.10
2023-03-31T01:40:51.198Z,10.10
2023-03-31T01:43:26.970Z,10.11
2023-03-31T01:46:02.147Z,10.13
2023-03-31T01:48:42.554Z,10.06
2023-03-31T01:51:18.282Z,10.14
2023-03-31T01:53:53.247Z,10.15
2023-03-31T01:56:27.201Z,10.14
2023-03-31T01:59:03.297Z,10.13
2023-03-31T02:01:39.688Z,10.11
2023-03-31T02:04:15.044Z,10.12
2023-03-31T02:06:53.287Z,10.07
2023-03-31T02:09:25.951Z,10.12
2023-03-31T02:11:57.299Z,9.95
2023-03-31T02:14:32.919Z,10.06
2023-03-31T02:17:04.112Z,10.05
2023-03-31T02:19:36.079Z,10.00
2023-03-31T02:22:07.093Z,9.96
2023-03-31T02:24:39.775Z,9.95
2023-03-31T02:27:14.272Z,9.92
2023-03-31T02:29:44.527Z,9.85
2023-03-31T02:32:21.990Z,9.85
2023-03-31T02:34:50.808Z,9.85
2023-03-31T02:37:19.530Z,9.74
2023-03-31T02:39:51.884Z,9.74
2023-03-31T02:42:21.374Z,9.74
2023-03-31T02:44:51.553Z,9.64
2023-03-31T02:47:24.004Z,9.60
2023-03-31T02:49:56.036Z,9.55
2023-03-31T02:52:53.023Z,9.54
2023-03-31T02:55:37.966Z,9.48
2023-03-31T02:58:43.761Z,9.38
2023-03-31T03:01:37.303Z,9.32
2023-03-31T03:04:18.436Z,9.28
2023-03-31T03:06:57.823Z,9.26
2023-03-31T03:09:37.213Z,9.23
2023-03-31T03:12:14.192Z,9.17
2023-03-31T03:14:50.150Z,9.12
2023-03-31T03:17:25.077Z,9.14
2023-03-31T03:19:56.447Z,9.12
2023-03-31T03:22:25.583Z,9.11
2023-03-31T03:24:54.395Z,9.08
2023-03-31T03:27:24.773Z,9.04
2023-03-31T03:29:53.758Z,9.01
2023-03-31T03:32:24.014Z,8.98
2023-03-31T03:34:52.534Z,8.93
2023-03-31T03:37:21.640Z,8.94
2023-03-31T03:39:50.129Z,8.91
2023-03-31T03:42:18.830Z,8.81
2023-03-31T03:44:47.709Z,8.84
2023-03-31T03:47:16.816Z,8.87
2023-03-31T03:49:48.894Z,8.86
2023-03-31T03:52:17.680Z,8.85
2023-03-31T03:54:46.297Z,8.86
2023-03-31T03:57:14.957Z,8.87
2023-03-31T03:59:43.560Z,8.86
2023-03-31T04:02:12.341Z,8.87
2023-03-31T04:04:41.299Z,8.84
2023-03-31T04:07:11.297Z,8.83
2023-03-31T04:09:39.827Z,8.85
2023-03-31T04:12:08.315Z,8.87
2023-03-31T04:14:36.915Z,8.86
2023-03-31T04:17:05.655Z,8.85
2023-03-31T04:19:34.914Z,8.85
2023-03-31T04:22:05.142Z,8.85
2023-03-31T04:24:38.994Z,8.83
2023-03-31T04:27:08.758Z,8.84
2023-03-31T04:29:37.637Z,8.85
2023-03-31T04:32:06.671Z,8.83
2023-03-31T04:34:38.012Z,8.82
2023-03-31T04:37:06.495Z,8.77
2023-03-31T04:39:36.644Z,8.81
2023-03-31T04:42:05.538Z,8.79
2023-03-31T04:44:34.290Z,8.79
2023-03-31T04:47:09.827Z,8.69
2023-03-31T04:49:38.323Z,8.76
2023-03-31T04:52:07.368Z,8.71
2023-03-31T04:54:37.394Z,8.70
2023-03-31T04:57:06.286Z,8.67
2023-03-31T04:59:34.827Z,8.66
2023-03-31T05:02:03.879Z,8.73
2023-03-31T05:04:33.135Z,8.75
2023-03-31T05:07:01.971Z,8.76
2023-03-31T05:09:30.950Z,8.72
2023-03-31T05:12:01.199Z,8.62
2023-03-31T05:14:29.869Z,8.74
2023-03-31T05:16:59.685Z,8.71
2023-03-31T05:19:28.406Z,8.70
2023-03-31T05:21:57.106Z,8.62
2023-03-31T05:24:26.208Z,8.74
2023-03-31T05:26:54.934Z,8.74
2023-03-31T05:29:25.291Z,8.79
2023-03-31T05:31:55.730Z,8.84
2023-03-31T05:34:24.486Z,8.87
2023-03-31T05:36:54.213Z,8.92
2023-03-31T05:39:22.847Z,8.94
2023-03-31T05:41:51.785Z,8.95
2023-03-31T05:44:21.058Z,9.00
2023-03-31T05:46:51.324Z,9.09
2023-03-31T05:49:20.035Z,9.09
2023-03-31T05:51:49.080Z,9.22
2023-03-31T05:54:17.653Z,9.26
2023-03-31T05:56:47.158Z,9.37
2023-03-31T05:59:15.691Z,9.45
2023-03-31T06:01:44.438Z,9.51
2023-03-31T06:04:14.699Z,9.59
2023-03-31T06:06:44.960Z,9.67
2023-03-31T06:09:14.245Z,9.72
2023-03-31T06:11:42.811Z,9.74
2023-03-31T06:14:11.738Z,9.71
2023-03-31T06:16:40.522Z,9.81
2023-03-31T06:19:09.509Z,9.83
2023-03-31T06:21:39.467Z,9.81
2023-03-31T06:24:10.170Z,9.90
2023-03-31T06:26:38.628Z,10.01
2023-03-31T06:29:07.311Z,10.07
2023-03-31T06:31:36.496Z,10.16
2023-03-31T06:34:05.084Z,10.25
2023-03-31T06:36:33.938Z,10.39
2023-03-31T06:39:03.988Z,10.52
2023-03-31T06:41:32.580Z,10.59
2023-03-31T06:44:01.143Z,10.63
2023-03-31T06:46:29.805Z,10.64
2023-03-31T06:48:58.769Z,10.68
2023-03-31T06:51:31.056Z,10.72
2023-03-31T06:54:01.009Z,10.75
2023-03-31T06:56:31.126Z,10.79
2023-03-31T06:58:59.703Z,10.81
2023-03-31T07:01:28.607Z,10.86
2023-03-31T07:03:58.524Z,10.92
2023-03-31T07:06:27.398Z,10.94
2023-03-31T07:08:55.899Z,11.08
2023-03-31T07:11:24.333Z,11.18
2023-03-31T07:13:54.398Z,11.23
2023-03-31T07:16:23.897Z,11.29
2023-03-31T07:18:54.989Z,11.34
2023-03-31T07:21:23.676Z,11.39
2023-03-31T07:23:52.089Z,11.46
2023-03-31T07:26:21.053Z,11.46
2023-03-31T07:28:49.555Z,11.58
2023-03-31T07:31:19.783Z,11.64
2023-03-31T07:33:48.392Z,11.69
2023-03-31T07:36:17.538Z,11.72
2023-03-31T07:38:49.396Z,11.80
2023-03-31T07:41:20.147Z,11.86
2023-03-31T07:43:49.284Z,11.92
2023-03-31T07:46:21.710Z,12.02
2023-03-31T07:48:50.809Z,12.08
2023-03-31T07:51:21.449Z,12.16
2023-03-31T07:53:52.637Z,12.18
2023-03-31T07:56:22.242Z,12.23
2023-03-31T07:58:55.121Z,12.31
2023-03-31T08:01:29.341Z,12.39
2023-03-31T08:03:59.424Z,12.40
2023-03-31T08:06:29.579Z,12.55
2023-03-31T08:08:58.762Z,12.62
2023-03-31T08:11:27.760Z,12.63
2023-03-31T08:13:56.286Z,12.79
2023-03-31T08:16:24.697Z,13.04
2023-03-31T08:18:54.682Z,13.24
2023-03-31T08:21:24.605Z,13.30
2023-03-31T08:23:55.496Z,13.40
2023-03-31T08:26:25.817Z,13.48
2023-03-31T08:28:54.848Z,13.55
2023-03-31T08:31:26.732Z,13.62
2023-03-31T08:33:57.662Z,13.69
2023-03-31T08:36:27.460Z,13.81
2023-03-31T08:38:56.280Z,13.96
2023-03-31T08:41:34.840Z,14.05
2023-03-31T08:44:07.050Z,14.09
2023-03-31T08:46:37.158Z,14.12
2023-03-31T08:49:09.267Z,14.16
2023-03-31T08:51:42.521Z,14.25
2023-03-31T08:54:18.019Z,14.40
2023-03-31T08:56:50.133Z,14.61
2023-03-31T08:59:27.614Z,14.79
2023-03-31T09:02:02.313Z,14.84
2023-03-31T09:04:51.753Z,14.92
2023-03-31T09:07:27.359Z,15.00
2023-03-31T09:10:08.082Z,15.14
2023-03-31T09:12:46.095Z,15.28
2023-03-31T09:15:24.234Z,15.25
2023-03-31T09:17:55.971Z,15.29
2023-03-31T09:20:32.510Z,15.36
2023-03-31T09:23:07.645Z,15.42
2023-03-31T09:25:41.933Z,15.50
2023-03-31T09:28:20.330Z,15.62
2023-03-31T09:30:51.126Z,15.52
2023-03-31T09:33:24.946Z,15.56
2023-03-31T09:35:55.197Z,15.53
2023-03-31T09:38:23.664Z,15.48
2023-03-31T09:40:52.437Z,15.41
2023-03-31T09:43:25.343Z,15.46
2023-03-31T09:46:08.537Z,15.42
2023-03-31T09:48:50.961Z,15.39
2023-03-31T09:51:27.491Z,15.39
2023-03-31T09:54:01.647Z,15.35
2023-03-31T09:56:48.972Z,15.31
2023-03-31T09:59:20.835Z,15.22
2023-03-31T10:01:53.561Z,15.19
2023-03-31T10:04:25.369Z,15.14
2023-03-31T10:06:57.943Z,15.07
2023-03-31T10:09:29.092Z,15.01
2023-03-31T10:11:59.577Z,15.08
2023-03-31T10:14:34.281Z,15.04
2023-03-31T10:17:07.765Z,15.05
2023-03-31T10:19:39.214Z,15.07
2023-03-31T10:22:17.722Z,15.10
2023-03-31T10:24:48.516Z,15.11
2023-03-31T10:27:24.481Z,15.12
2023-03-31T10:29:54.891Z,15.11
2023-03-31T10:32:29.189Z,15.10
2023-03-31T10:34:59.486Z,15.04
2023-03-31T10:37:31.930Z,15.08
2023-03-31T10:40:02.337Z,15.04
2023-03-31T10:42:30.991Z,15.05
2023-03-31T10:45:36.480Z,15.10
2023-03-31T10:48:18.309Z,15.06
2023-03-31T10:50:47.098Z,15.08
2023-03-31T10:53:28.082Z,15.13
2023-03-31T10:56:34.972Z,15.13
2023-03-31T10:59:52.758Z,15.12
2023-03-31T11:02:55.343Z,15.15
2023-03-31T11:05:35.024Z,15.20
2023-03-31T11:08:30.422Z,15.30
2023-03-31T11:11:23.468Z,15.41
2023-03-31T11:14:09.197Z,15.58
2023-03-31T11:16:46.792Z,15.77
2023-03-31T11:19:31.645Z,16.00
2023-03-31T11:22:10.060Z,16.17
2023-03-31T11:25:04.027Z,16.33
2023-03-31T11:27:45.194Z,16.53
2023-03-31T11:30:20.636Z,16.53
2023-03-31T11:33:03.230Z,16.69
2023-03-31T11:35:51.193Z,16.77
2023-03-31T11:38:50.845Z,16.83
2023-03-31T11:41:33.320Z,16.84
2023-03-31T11:44:05.677Z,17.04
2023-03-31T11:46:41.954Z,17.05
2023-03-31T11:49:18.307Z,17.01
2023-03-31T11:51:53.575Z,17.00
2023-03-31T11:54:29.732Z,16.92
2023-03-31T11:57:02.819Z,16.86
2023-03-31T11:59:34.770Z,16.79
2023-03-31T12:02:12.435Z,16.78
2023-03-31T12:04:44.401Z,16.69
2023-03-31T12:07:24.611Z,16.65
2023-03-31T12:10:03.424Z,16.56
2023-03-31T12:12:36.901Z,16.55
2023-03-31T12:15:15.626Z,16.56
2023-03-31T12:17:49.316Z,16.50
2023-03-31T12:20:27.447Z,16.36
2023-03-31T12:22:57.673Z,16.34
2023-03-31T12:25:28.575Z,16.24
2023-03-31T12:28:00.152Z,16.12
2023-03-31T12:30:34.867Z,16.09
2023-03-31T12:33:08.454Z,16.10
2023-03-31T12:35:47.067Z,16.13
2023-03-31T12:38:29.343Z,16.12
2023-03-31T12:41:07.822Z,16.02
2023-03-31T12:44:00.576Z,15.98
2023-03-31T12:46:44.435Z,15.97
2023-03-31T12:49:27.141Z,15.90
2023-03-31T12:52:02.757Z,15.94
2023-03-31T12:55:13.310Z,15.89
2023-03-31T12:57:46.870Z,15.94
2023-03-31T13:00:28.033Z,15.88
2023-03-31T13:03:34.767Z,15.84
2023-03-31T13:06:03.708Z,15.80
2023-03-31T13:08:56.273Z,15.73
2023-03-31T13:11:38.557Z,15.63
2023-03-31T13:14:14.858Z,15.71
2023-03-31T13:16:45.430Z,15.70
2023-03-31T13:19:28.733Z,15.55
2023-03-31T13:21:59.652Z,15.50
2023-03-31T13:24:29.666Z,15.45
2023-03-31T13:26:59.614Z,15.23
2023-03-31T13:29:41.967Z,15.12
2023-03-31T13:32:21.891Z,15.08
2023-03-31T13:34:58.015Z,14.86
2023-03-31T13:37:46.021Z,14.72
2023-03-31T13:40:45.269Z,14.73
2023-03-31T13:43:44.025Z,14.58
2023-03-31T13:46:43.425Z,14.63
2023-03-31T13:49:44.005Z,14.57
2023-03-31T13:52:14.076Z,14.47
2023-03-31T13:55:18.038Z,14.56
2023-03-31T13:58:24.794Z,14.55
2023-03-31T14:01:36.456Z,14.43
2023-03-31T14:04:18.249Z,14.39
2023-03-31T14:06:54.134Z,14.30
2023-03-31T14:09:28.624Z,14.30
2023-03-31T14:11:59.993Z,14.20
2023-03-31T14:14:30.116Z,13.98
2023-03-31T14:17:02.160Z,13.98
2023-03-31T14:19:50.838Z,13.97
2023-03-31T14:22:32.066Z,13.98
2023-03-31T14:25:12.870Z,13.94
2023-03-31T14:27:56.892Z,13.95
2023-03-31T14:30:35.211Z,13.92
2023-03-31T14:33:18.630Z,13.96
2023-03-31T14:35:58.261Z,13.95
2023-03-31T14:38:30.552Z,13.84
2023-03-31T14:41:01.357Z,13.81
2023-03-31T14:43:33.959Z,13.75
2023-03-31T14:46:03.821Z,13.62
2023-03-31T14:48:36.558Z,13.61
2023-03-31T14:51:11.688Z,13.63
2023-03-31T14:53:40.502Z,13.62
2023-03-31T14:56:13.840Z,13.56
2023-03-31T14:58:47.094Z,13.65
2023-03-31T15:01:21.566Z,13.73
2023-03-31T15:03:50.514Z,13.79
2023-03-31T15:06:21.262Z,13.78
2023-03-31T15:08:59.785Z,13.69
2023-03-31T15:11:30.527Z,13.73
2023-03-31T15:14:04.879Z,13.68
2023-03-31T15:16:42.764Z,13.70
2023-03-31T15:19:18.187Z,13.69
2023-03-31T15:21:56.472Z,13.68
2023-03-31T15:24:25.474Z,13.64
2023-03-31T15:26:59.197Z,13.63
2023-03-31T15:29:37.199Z,13.68
2023-03-31T15:32:08.958Z,13.64
2023-03-31T15:34:38.808Z,13.59
2023-03-31T15:37:09.814Z,13.61
2023-03-31T15:39:40.038Z,13.62
2023-03-31T15:42:10.047Z,13.62
2023-03-31T15:44:45.192Z,13.60
2023-03-31T15:47:20.744Z,13.61
2023-03-31T15:49:55.281Z,13.61
2023-03-31T15:52:34.181Z,13.51
2023-03-31T15:55:04.367Z,13.57
2023-03-31T15:57:36.283Z,13.55
2023-03-31T16:00:08.080Z,13.58
2023-03-31T16:02:43.699Z,13.50
2023-03-31T16:05:37.196Z,13.58
2023-03-31T16:08:16.447Z,13.88
2023-03-31T16:10:45.490Z,14.25
2023-03-31T16:13:23.518Z,14.55
2023-03-31T16:15:55.155Z,14.86
2023-03-31T16:18:29.154Z,15.26
2023-03-31T16:21:01.952Z,15.32
2023-03-31T16:23:37.556Z,14.91
2023-03-31T16:26:07.396Z,14.52
2023-03-31T16:28:38.747Z,14.37
2023-03-31T16:31:14.553Z,14.15
2023-03-31T16:33:55.886Z,14.01
2023-03-31T16:36:24.886Z,13.89
2023-03-31T16:38:55.718Z,13.84
2023-03-31T16:41:25.126Z,13.77
2023-03-31T16:43:54.335Z,13.71
2023-03-31T16:46:23.366Z,13.71
2023-03-31T16:48:52.163Z,13.71
2023-03-31T16:51:21.235Z,13.74
2023-03-31T16:53:50.123Z,13.75
2023-03-31T16:56:22.236Z,13.79
2023-03-31T16:58:50.951Z,13.78
2023-03-31T17:01:19.619Z,13.83
2023-03-31T17:03:49.495Z,13.85
2023-03-31T17:06:18.195Z,13.86
2023-03-31T17:08:47.062Z,13.87
2023-03-31T17:11:16.212Z,13.86
2023-03-31T17:13:46.989Z,13.87
2023-03-31T17:16:19.134Z,13.83
2023-03-31T17:18:53.208Z,13.80
2023-03-31T17:21:22.400Z,13.76
2023-03-31T17:23:51.118Z,13.69
2023-03-31T17:26:20.351Z,13.61
2023-03-31T17:28:50.303Z,13.54
2023-03-31T17:31:20.979Z,13.47
2023-03-31T17:33:49.776Z,13.39
2023-03-31T17:36:18.721Z,13.33
2023-03-31T17:38:47.346Z,13.24
2023-03-31T17:41:18.057Z,13.22
2023-03-31T17:43:47.327Z,13.15
2023-03-31T17:46:18.278Z,13.13
2023-03-31T17:48:47.027Z,13.08
2023-03-31T17:51:17.197Z,12.99
2023-03-31T17:53:47.380Z,12.85
2023-03-31T17:56:17.524Z,12.78
2023-03-31T17:58:46.956Z,12.82
2023-03-31T18:01:17.274Z,12.84
2023-03-31T18:03:46.537Z,12.79
2023-03-31T18:06:18.014Z,12.72
2023-03-31T18:08:46.621Z,12.69
2023-03-31T18:11:16.097Z,12.65
2023-03-31T18:13:45.849Z,12.63
2023-03-31T18:16:15.016Z,12.61
2023-03-31T18:18:45.024Z,12.60
2023-03-31T18:21:15.084Z,12.55
2023-03-31T18:23:43.726Z,12.49
2023-03-31T18:26:14.442Z,12.48
2023-03-31T18:28:43.643Z,12.46
2023-03-31T18:31:14.306Z,12.42
2023-03-31T18:33:45.063Z,12.42
2023-03-31T18:36:18.307Z,12.38
2023-03-31T18:38:47.347Z,12.36
2023-03-31T18:41:16.627Z,12.34
2023-03-31T18:43:45.467Z,12.34
2023-03-31T18:46:14.640Z,12.30
2023-03-31T18:48:46.392Z,12.26
2023-03-31T18:51:15.645Z,12.23
2023-03-31T18:53:44.132Z,12.18
2023-03-31T18:56:13.546Z,12.14
2023-03-31T18:58:42.506Z,12.08
2023-03-31T19:01:11.151Z,12.08
2023-03-31T19:03:39.819Z,12.02
2023-03-31T19:06:13.922Z,11.94
2023-03-31T19:08:42.633Z,11.80
2023-03-31T19:11:13.255Z,11.92
2023-03-31T19:13:43.212Z,12.28
2023-03-31T19:16:12.345Z,12.41
2023-03-31T19:18:41.677Z,12.28
2023-03-31T19:21:12.242Z,12.13
2023-03-31T19:23:41.416Z,12.05
2023-03-31T19:26:14.060Z,12.00
2023-03-31T19:28:42.682Z,11.92
2023-03-31T19:31:12.615Z,11.85
2023-03-31T19:33:41.153Z,11.81
2023-03-31T19:36:11.604Z,11.71
2023-03-31T19:38:40.324Z,11.64
2023-03-31T19:41:09.917Z,11.60
2023-03-31T19:43:43.655Z,11.73
2023-03-31T19:46:12.429Z,11.99
2023-03-31T19:48:41.419Z,12.40
2023-03-31T19:51:12.178Z,12.13
2023-03-31T19:53:41.472Z,11.95
2023-03-31T19:56:11.442Z,11.94
2023-03-31T19:58:40.604Z,11.83
2023-03-31T20:01:11.796Z,11.79
2023-03-31T20:03:40.363Z,11.77
2023-03-31T20:06:11.984Z,11.67
2023-03-31T20:08:43.151Z,11.66
2023-03-31T20:11:14.152Z,11.62
2023-03-31T20:13:44.445Z,11.58
2023-03-31T20:16:15.002Z,11.58
2023-03-31T20:18:49.157Z,11.51
2023-03-31T20:21:20.954Z,11.48
2023-03-31T20:23:54.311Z,11.41
2023-03-31T20:26:25.464Z,11.36
2023-03-31T20:28:56.223Z,11.34
2023-03-31T20:31:26.710Z,11.35
2023-03-31T20:33:56.482Z,11.34
2023-03-31T20:36:29.654Z,11.38
2023-03-31T20:38:58.737Z,11.29
2023-03-31T20:41:32.038Z,11.23
2023-03-31T20:44:00.983Z,11.20
2023-03-31T20:46:29.839Z,11.17
2023-03-31T20:48:59.215Z,11.09
2023-03-31T20:51:30.979Z,11.03
2023-03-31T20:54:01.640Z,10.93
2023-03-31T20:56:32.015Z,10.88
2023-03-31T20:59:02.298Z,10.86
2023-03-31T21:01:35.537Z,10.80
2023-03-31T21:04:06.470Z,10.73
2023-03-31T21:06:41.279Z,10.67
2023-03-31T21:09:11.884Z,10.70
2023-03-31T21:11:40.909Z,10.66
2023-03-31T21:14:10.000Z,10.62
2023-03-31T21:16:40.222Z,10.56
2023-03-31T21:19:08.807Z,10.51
2023-03-31T21:21:41.534Z,10.47
2023-03-31T21:24:12.774Z,10.56
2023-03-31T21:26:41.748Z,10.50
2023-03-31T21:29:10.609Z,10.48
2023-03-31T21:31:39.267Z,10.51
2023-03-31T21:34:07.909Z,10.62
2023-03-31T21:36:36.598Z,10.62
2023-03-31T21:39:06.822Z,10.63
2023-03-31T21:41:35.509Z,10.56
2023-03-31T21:44:04.515Z,10.56
2023-03-31T21:46:34.473Z,10.63
2023-03-31T21:49:04.016Z,10.61
2023-03-31T21:51:33.017Z,10.58
2023-03-31T21:54:02.160Z,10.54
2023-03-31T21:56:32.783Z,10.47
2023-03-31T21:59:02.525Z,10.45
2023-03-31T22:01:31.634Z,10.34
2023-03-31T22:04:00.700Z,10.50
2023-03-31T22:06:29.563Z,10.57
2023-03-31T22:08:57.984Z,10.53
2023-03-31T22:11:27.397Z,10.54
2023-03-31T22:13:58.434Z,10.55
2023-03-31T22:16:27.348Z,10.53
2023-03-31T22:18:57.925Z,10.51
2023-03-31T22:21:28.564Z,10.51
2023-03-31T22:23:59.234Z,10.48
2023-03-31T22:26:30.040Z,10.49
2023-03-31T22:29:00.157Z,10.47
2023-03-31T22:31:28.944Z,10.60
2023-03-31T22:33:57.548Z,10.56
2023-03-31T22:36:26.028Z,10.52
2023-03-31T22:38:54.625Z,10.48
2023-03-31T22:41:23.437Z,10.29
2023-03-31T22:43:52.500Z,10.32
2023-03-31T22:46:22.603Z,10.15
2023-03-31T22:48:54.124Z,10.24
2023-03-31T22:51:22.708Z,10.20
2023-03-31T22:53:52.534Z,10.13
2023-03-31T22:56:21.829Z,10.11
2023-03-31T22:58:50.745Z,9.98
2023-03-31T23:01:22.608Z,10.09
2023-03-31T23:03:51.351Z,10.04
2023-03-31T23:06:20.438Z,9.99
2023-03-31T23:08:49.881Z,9.86
2023-03-31T23:11:19.099Z,9.90
2023-03-31T23:13:50.404Z,9.96
2023-03-31T23:16:22.845Z,9.93
2023-03-31T23:18:53.154Z,9.92
2023-03-31T23:21:24.685Z,9.90
2023-03-31T23:23:55.115Z,9.88
2023-03-31T23:26:26.656Z,9.84
2023-03-31T23:28:55.539Z,9.78
2023-03-31T23:31:27.909Z,9.81
2023-03-31T23:33:56.515Z,9.75
2023-03-31T23:36:25.920Z,9.72
2023-03-31T23:38:56.358Z,9.80
2023-03-31T23:41:26.672Z,9.81
2023-03-31T23:43:57.904Z,9.79
2023-03-31T23:46:28.152Z,9.82
2023-03-31T23:48:56.818Z,9.80
2023-03-31T23:51:25.849Z,9.78
2023-03-31T23:53:54.531Z,9.75
2023-03-31T23:56:23.125Z,9.86
2023-03-31T23:58:51.822Z,9.85
